sensor_id;sensor_type;location;lat;lon;timestamp;pressure;altitude;pressure_sealevel;temperature;humidity
14242;BME280;7205;50.864;12.766;2023-09-12T00:00:06;97332.81;;;17.77;87.42
14242;BME280;7205;50.864;12.766;2023-09-12T00:02:39;97337.59;;;17.75;87.39
14242;BME280;7205;50.864;12.766;2023-09-12T00:05:06;97342.09;;;17.74;87.65
14242;BME280;7205;50.864;12.766;2023-09-12T00:07:35;97333.72;;;17.71;87.69
14242;BME280;7205;50.864;12.766;2023-09-12T00:10:02;97340.13;;;17.70;87.78
14242;BME280;7205;50.864;12.766;2023-09-12T00:12:29;97339.75;;;17.66;87.85
14242;BME280;7205;50.864;12.766;2023-09-12T00:14:55;97343.44;;;17.65;87.84
14242;BME280;7205;50.864;12.766;2023-09-12T00:17:23;97339.38;;;17.63;87.98
14242;BME280;7205;50.864;12.766;2023-09-12T00:19:52;97331.84;;;17.60;88.02
14242;BME280;7205;50.864;12.766;2023-09-12T00:22:19;97341.09;;;17.57;88.02
14242;BME280;7205;50.864;12.766;2023-09-12T00:24:45;97340.28;;;17.57;88.26
14242;BME280;7205;50.864;12.766;2023-09-12T00:27:12;97339.94;;;17.53;88.25
14242;BME280;7205;50.864;12.766;2023-09-12T00:29:39;97334.00;;;17.51;88.63
14242;BME280;7205;50.864;12.766;2023-09-12T00:32:06;97324.56;;;17.48;88.66
14242;BME280;7205;50.864;12.766;2023-09-12T00:34:34;97329.13;;;17.48;88.58
14242;BME280;7205;50.864;12.766;2023-09-12T00:37:01;97333.25;;;17.44;88.92
14242;BME280;7205;50.864;12.766;2023-09-12T00:39:28;97335.91;;;17.44;89.00
14242;BME280;7205;50.864;12.766;2023-09-12T00:41:55;97324.63;;;17.42;88.94
14242;BME280;7205;50.864;12.766;2023-09-12T00:44:25;97327.53;;;17.40;89.09
14242;BME280;7205;50.864;12.766;2023-09-12T00:46:52;97327.53;;;17.40;89.23
14242;BME280;7205;50.864;12.766;2023-09-12T00:49:21;97332.50;;;17.37;89.10
14242;BME280;7205;50.864;12.766;2023-09-12T00:51:50;97322.88;;;17.36;88.78
14242;BME280;7205;50.864;12.766;2023-09-12T00:54:17;97322.50;;;17.32;89.35
14242;BME280;7205;50.864;12.766;2023-09-12T00:56:45;97325.41;;;17.31;89.57
14242;BME280;7205;50.864;12.766;2023-09-12T00:59:13;97327.25;;;17.30;89.69
14242;BME280;7205;50.864;12.766;2023-09-12T01:01:40;97325.88;;;17.28;89.86
14242;BME280;7205;50.864;12.766;2023-09-12T01:04:07;97333.06;;;17.27;90.04
14242;BME280;7205;50.864;12.766;2023-09-12T01:06:34;97327.13;;;17.25;90.19
14242;BME280;7205;50.864;12.766;2023-09-12T01:09:03;97333.28;;;17.26;89.95
14242;BME280;7205;50.864;12.766;2023-09-12T01:11:31;97335.13;;;17.25;90.51
14242;BME280;7205;50.864;12.766;2023-09-12T01:13:58;97334.31;;;17.25;90.46
14242;BME280;7205;50.864;12.766;2023-09-12T01:16:24;97344.97;;;17.25;90.54
14242;BME280;7205;50.864;12.766;2023-09-12T01:18:51;97336.97;;;17.25;90.60
14242;BME280;7205;50.864;12.766;2023-09-12T01:21:38;97334.97;;;17.20;90.57
14242;BME280;7205;50.864;12.766;2023-09-12T01:24:25;97343.22;;;17.19;90.44
14242;BME280;7205;50.864;12.766;2023-09-12T01:27:13;97332.53;;;17.19;90.46
14242;BME280;7205;50.864;12.766;2023-09-12T01:29:42;97339.72;;;17.18;90.63
14242;BME280;7205;50.864;12.766;2023-09-12T01:32:10;97333.59;;;17.18;90.71
14242;BME280;7205;50.864;12.766;2023-09-12T01:34:37;97334.63;;;17.17;90.54
14242;BME280;7205;50.864;12.766;2023-09-12T01:37:04;97335.66;;;17.16;90.87
14242;BME280;7205;50.864;12.766;2023-09-12T01:39:31;97335.66;;;17.16;90.94
14242;BME280;7205;50.864;12.766;2023-09-12T01:41:59;97338.34;;;17.16;90.89
14242;BME280;7205;50.864;12.766;2023-09-12T01:44:28;97334.84;;;17.15;90.81
14242;BME280;7205;50.864;12.766;2023-09-12T01:46:57;97338.56;;;17.14;90.76
14242;BME280;7205;50.864;12.766;2023-09-12T01:49:28;97336.91;;;17.13;90.88
14242;BME280;7205;50.864;12.766;2023-09-12T01:51:55;97338.78;;;17.13;90.97
14242;BME280;7205;50.864;12.766;2023-09-12T01:54:25;97337.97;;;17.12;90.86
14242;BME280;7205;50.864;12.766;2023-09-12T01:56:53;97332.84;;;17.11;91.03
14242;BME280;7205;50.864;12.766;2023-09-12T01:59:23;97332.03;;;17.10;90.70
14242;BME280;7205;50.864;12.766;2023-09-12T02:01:51;97330.63;;;17.08;90.71
14242;BME280;7205;50.864;12.766;2023-09-12T02:04:18;97334.09;;;17.08;90.90
14242;BME280;7205;50.864;12.766;2023-09-12T02:06:45;97342.09;;;17.08;90.79
14242;BME280;7205;50.864;12.766;2023-09-12T02:09:11;97334.31;;;17.07;90.97
14242;BME280;7205;50.864;12.766;2023-09-12T02:11:38;97339.06;;;17.05;90.97
14242;BME280;7205;50.864;12.766;2023-09-12T02:14:05;97339.28;;;17.03;91.15
14242;BME280;7205;50.864;12.766;2023-09-12T02:16:36;97337.66;;;17.02;91.32
14242;BME280;7205;50.864;12.766;2023-09-12T02:19:05;97347.50;;;17.02;91.43
14242;BME280;7205;50.864;12.766;2023-09-12T02:21:32;97335.22;;;17.01;91.33
14242;BME280;7205;50.864;12.766;2023-09-12T02:23:58;97340.78;;;16.99;91.41
14242;BME280;7205;50.864;12.766;2023-09-12T02:26:25;97340.78;;;16.99;91.42
14242;BME280;7205;50.864;12.766;2023-09-12T02:28:52;97339.13;;;16.98;91.37
14242;BME280;7205;50.864;12.766;2023-09-12T02:31:19;97342.41;;;17.00;91.66
14242;BME280;7205;50.864;12.766;2023-09-12T02:33:46;97340.19;;;16.97;91.56
14242;BME280;7205;50.864;12.766;2023-09-12T02:36:15;97332.41;;;16.96;91.40
14242;BME280;7205;50.864;12.766;2023-09-12T02:38:41;97326.25;;;16.95;91.41
14242;BME280;7205;50.864;12.766;2023-09-12T02:41:08;97324.63;;;16.94;91.52
14242;BME280;7205;50.864;12.766;2023-09-12T02:43:35;97332.03;;;16.92;91.58
14242;BME280;7205;50.864;12.766;2023-09-12T02:46:02;97331.22;;;16.92;91.51
14242;BME280;7205;50.864;12.766;2023-09-12T02:48:28;97333.28;;;16.90;91.82
14242;BME280;7205;50.864;12.766;2023-09-12T02:50:55;97324.50;;;16.89;91.63
14242;BME280;7205;50.864;12.766;2023-09-12T02:53:23;97330.84;;;16.88;91.88
14242;BME280;7205;50.864;12.766;2023-09-12T02:55:51;97325.72;;;16.87;91.92
14242;BME280;7205;50.864;12.766;2023-09-12T02:58:19;97321.44;;;16.86;91.71
14242;BME280;7205;50.864;12.766;2023-09-12T03:00:46;97323.28;;;16.85;91.78
14242;BME280;7205;50.864;12.766;2023-09-12T03:03:15;97317.34;;;16.83;91.75
14242;BME280;7205;50.864;12.766;2023-09-12T03:05:42;97305.28;;;16.81;91.69
14242;BME280;7205;50.864;12.766;2023-09-12T03:08:09;97313.31;;;16.81;91.89
14242;BME280;7205;50.864;12.766;2023-09-12T03:10:37;97305.75;;;16.78;91.75
14242;BME280;7205;50.864;12.766;2023-09-12T03:13:04;97307.38;;;16.79;91.98
14242;BME280;7205;50.864;12.766;2023-09-12T03:15:35;97315.38;;;16.79;91.88
14242;BME280;7205;50.864;12.766;2023-09-12T03:18:04;97309.44;;;16.77;91.88
14242;BME280;7205;50.864;12.766;2023-09-12T03:20:31;97308.03;;;16.74;91.88
14242;BME280;7205;50.864;12.766;2023-09-12T03:22:59;97303.72;;;16.73;91.94
14242;BME280;7205;50.864;12.766;2023-09-12T03:25:25;97312.19;;;16.70;92.23
14242;BME280;7205;50.864;12.766;2023-09-12T03:27:54;97312.63;;;16.67;92.43
14242;BME280;7205;50.864;12.766;2023-09-12T03:30:20;97304.03;;;16.65;92.72
14242;BME280;7205;50.864;12.766;2023-09-12T03:32:47;97313.28;;;16.63;92.79
14242;BME280;7205;50.864;12.766;2023-09-12T03:35:14;97320.25;;;16.64;92.87
14242;BME280;7205;50.864;12.766;2023-09-12T03:37:41;97319.03;;;16.60;92.86
14242;BME280;7205;50.864;12.766;2023-09-12T03:40:09;97322.53;;;16.60;93.14
14242;BME280;7205;50.864;12.766;2023-09-12T03:42:37;97317.44;;;16.59;93.23
14242;BME280;7205;50.864;12.766;2023-09-12T03:45:06;97315.81;;;16.58;93.42
14242;BME280;7205;50.864;12.766;2023-09-12T03:47:33;97316.00;;;16.56;93.45
14242;BME280;7205;50.864;12.766;2023-09-12T03:50:00;97315.22;;;16.56;93.46
14242;BME280;7205;50.864;12.766;2023-09-12T03:52:27;97311.72;;;16.55;93.48
14242;BME280;7205;50.864;12.766;2023-09-12T03:54:54;97314.59;;;16.54;93.41
14242;BME280;7205;50.864;12.766;2023-09-12T03:57:21;97308.44;;;16.53;93.41
14242;BME280;7205;50.864;12.766;2023-09-12T03:59:48;97314.00;;;16.52;93.75
14242;BME280;7205;50.864;12.766;2023-09-12T04:02:18;97311.94;;;16.54;93.64
14242;BME280;7205;50.864;12.766;2023-09-12T04:04:45;97309.72;;;16.51;93.63
14242;BME280;7205;50.864;12.766;2023-09-12T04:07:12;97315.06;;;16.51;93.94
14242;BME280;7205;50.864;12.766;2023-09-12T04:09:39;97308.06;;;16.50;93.74
14242;BME280;7205;50.864;12.766;2023-09-12T04:12:07;97317.13;;;16.49;94.17
14242;BME280;7205;50.864;12.766;2023-09-12T04:14:34;97307.50;;;16.48;94.37
14242;BME280;7205;50.864;12.766;2023-09-12T04:17:01;97315.69;;;16.46;94.51
14242;BME280;7205;50.864;12.766;2023-09-12T04:19:32;97316.50;;;16.47;94.28
14242;BME280;7205;50.864;12.766;2023-09-12T04:21:59;97313.03;;;16.46;94.62
14242;BME280;7205;50.864;12.766;2023-09-12T04:24:26;97313.63;;;16.48;94.69
14242;BME280;7205;50.864;12.766;2023-09-12T04:26:54;97318.97;;;16.48;94.94
14242;BME280;7205;50.864;12.766;2023-09-12T04:29:20;97316.28;;;16.48;94.79
14242;BME280;7205;50.864;12.766;2023-09-12T04:31:48;97317.13;;;16.49;94.93
14242;BME280;7205;50.864;12.766;2023-09-12T04:34:15;97321.41;;;16.50;94.95
14242;BME280;7205;50.864;12.766;2023-09-12T04:36:47;97322.44;;;16.49;94.60
14242;BME280;7205;50.864;12.766;2023-09-12T04:39:17;97313.03;;;16.46;94.96
14242;BME280;7205;50.864;12.766;2023-09-12T04:41:44;97317.34;;;16.47;95.23
14242;BME280;7205;50.864;12.766;2023-09-12T04:44:11;97312.84;;;16.48;95.20
14242;BME280;7205;50.864;12.766;2023-09-12T04:46:37;97315.50;;;16.48;95.34
14242;BME280;7205;50.864;12.766;2023-09-12T04:49:04;97309.13;;;16.49;95.30
14242;BME280;7205;50.864;12.766;2023-09-12T04:51:31;97310.75;;;16.50;95.37
14242;BME280;7205;50.864;12.766;2023-09-12T04:53:59;97309.94;;;16.49;95.35
14242;BME280;7205;50.864;12.766;2023-09-12T04:56:26;97316.66;;;16.52;95.40
14242;BME280;7205;50.864;12.766;2023-09-12T04:58:53;97311.72;;;16.55;95.27
14242;BME280;7205;50.864;12.766;2023-09-12T05:01:20;97306.16;;;16.57;95.37
14242;BME280;7205;50.864;12.766;2023-09-12T05:03:47;97303.28;;;16.58;95.54
14242;BME280;7205;50.864;12.766;2023-09-12T05:06:14;97308.97;;;16.62;95.85
14242;BME280;7205;50.864;12.766;2023-09-12T05:08:41;97315.28;;;16.67;95.46
14242;BME280;7205;50.864;12.766;2023-09-12T05:11:10;97315.66;;;16.71;95.53
14242;BME280;7205;50.864;12.766;2023-09-12T05:13:38;97311.50;;;16.75;95.77
14242;BME280;7205;50.864;12.766;2023-09-12T05:16:09;97316.75;;;16.81;95.65
14242;BME280;7205;50.864;12.766;2023-09-12T05:18:36;97311.38;;;16.88;95.95
14242;BME280;7205;50.864;12.766;2023-09-12T05:21:03;97317.44;;;16.95;95.93
14242;BME280;7205;50.864;12.766;2023-09-12T05:23:31;97311.81;;;17.03;95.80
14242;BME280;7205;50.864;12.766;2023-09-12T05:26:00;97308.69;;;17.06;95.96
14242;BME280;7205;50.864;12.766;2023-09-12T05:28:30;97320.44;;;17.16;95.62
14242;BME280;7205;50.864;12.766;2023-09-12T05:31:03;97319.13;;;17.25;95.64
14242;BME280;7205;50.864;12.766;2023-09-12T05:33:35;97316.13;;;17.33;95.55
14242;BME280;7205;50.864;12.766;2023-09-12T05:36:02;97316.63;;;17.42;95.74
14242;BME280;7205;50.864;12.766;2023-09-12T05:38:31;97321.44;;;17.51;95.56
14242;BME280;7205;50.864;12.766;2023-09-12T05:41:05;97321.16;;;17.60;95.24
14242;BME280;7205;50.864;12.766;2023-09-12T05:43:35;97323.28;;;17.69;95.14
14242;BME280;7205;50.864;12.766;2023-09-12T05:46:05;97330.94;;;17.77;94.80
14242;BME280;7205;50.864;12.766;2023-09-12T05:48:35;97338.63;;;17.85;94.57
14242;BME280;7205;50.864;12.766;2023-09-12T05:51:02;97338.34;;;17.93;94.57
14242;BME280;7205;50.864;12.766;2023-09-12T05:53:32;97338.81;;;18.02;94.24
14242;BME280;7205;50.864;12.766;2023-09-12T05:55:59;97341.38;;;18.08;94.32
14242;BME280;7205;50.864;12.766;2023-09-12T05:58:39;97340.94;;;18.11;94.16
14242;BME280;7205;50.864;12.766;2023-09-12T06:01:19;97354.53;;;18.21;93.67
14242;BME280;7205;50.864;12.766;2023-09-12T06:03:50;97357.47;;;18.31;93.93
14242;BME280;7205;50.864;12.766;2023-09-12T06:06:24;97353.63;;;18.39;93.91
14242;BME280;7205;50.864;12.766;2023-09-12T06:08:54;97360.88;;;18.50;93.78
14242;BME280;7205;50.864;12.766;2023-09-12T06:11:23;97350.31;;;18.55;93.63
14242;BME280;7205;50.864;12.766;2023-09-12T06:13:52;97350.88;;;18.68;93.69
14242;BME280;7205;50.864;12.766;2023-09-12T06:16:20;97360.16;;;18.77;93.78
14242;BME280;7205;50.864;12.766;2023-09-12T06:18:52;97353.44;;;18.87;93.46
14242;BME280;7205;50.864;12.766;2023-09-12T06:21:19;97355.75;;;18.95;93.68
14242;BME280;7205;50.864;12.766;2023-09-12T06:24:10;97355.59;;;19.01;93.60
14242;BME280;7205;50.864;12.766;2023-09-12T06:26:40;97356.41;;;19.13;93.50
14242;BME280;7205;50.864;12.766;2023-09-12T06:29:09;97353.72;;;19.25;93.39
14242;BME280;7205;50.864;12.766;2023-09-12T06:31:38;97355.34;;;19.37;93.45
14242;BME280;7205;50.864;12.766;2023-09-12T06:34:15;97353.91;;;19.46;93.23
14242;BME280;7205;50.864;12.766;2023-09-12T06:36:45;97355.97;;;19.56;93.43
14242;BME280;7205;50.864;12.766;2023-09-12T06:39:12;97362.44;;;19.71;93.52
14242;BME280;7205;50.864;12.766;2023-09-12T06:41:45;97359.69;;;19.83;93.23
14242;BME280;7205;50.864;12.766;2023-09-12T06:44:13;97356.16;;;19.94;93.26
14242;BME280;7205;50.864;12.766;2023-09-12T06:46:40;97356.34;;;20.04;93.25
14242;BME280;7205;50.864;12.766;2023-09-12T06:49:07;97357.09;;;20.16;93.20
14242;BME280;7205;50.864;12.766;2023-09-12T06:51:34;97361.84;;;20.26;92.96
14242;BME280;7205;50.864;12.766;2023-09-12T06:54:04;97367.13;;;20.37;92.85
14242;BME280;7205;50.864;12.766;2023-09-12T06:56:31;97364.59;;;20.47;92.99
14242;BME280;7205;50.864;12.766;2023-09-12T06:59:00;97367.28;;;20.64;92.50
14242;BME280;7205;50.864;12.766;2023-09-12T07:01:30;97368.31;;;20.79;91.94
14242;BME280;7205;50.864;12.766;2023-09-12T07:03:57;97365.28;;;20.92;91.39
14242;BME280;7205;50.864;12.766;2023-09-12T07:06:24;97366.34;;;21.08;91.33
14242;BME280;7205;50.864;12.766;2023-09-12T07:08:51;97364.34;;;21.20;90.73
14242;BME280;7205;50.864;12.766;2023-09-12T07:11:18;97364.53;;;21.35;90.23
14242;BME280;7205;50.864;12.766;2023-09-12T07:13:45;97361.75;;;21.47;89.44
14242;BME280;7205;50.864;12.766;2023-09-12T07:16:12;97361.09;;;21.61;88.72
14242;BME280;7205;50.864;12.766;2023-09-12T07:18:40;97366.91;;;21.75;87.68
14242;BME280;7205;50.864;12.766;2023-09-12T07:21:07;97367.34;;;21.88;87.37
14242;BME280;7205;50.864;12.766;2023-09-12T07:23:36;97363.94;;;21.98;86.50
14242;BME280;7205;50.864;12.766;2023-09-12T07:26:03;97359.75;;;22.07;85.06
14242;BME280;7205;50.864;12.766;2023-09-12T07:28:30;97356.06;;;22.18;82.72
14242;BME280;7205;50.864;12.766;2023-09-12T07:30:57;97359.94;;;22.27;81.42
14242;BME280;7205;50.864;12.766;2023-09-12T07:33:24;97362.44;;;22.38;80.18
14242;BME280;7205;50.864;12.766;2023-09-12T07:35:54;97361.19;;;22.51;79.35
14242;BME280;7205;50.864;12.766;2023-09-12T07:38:21;97362.94;;;22.62;78.53
14242;BME280;7205;50.864;12.766;2023-09-12T07:40:49;97356.53;;;22.73;78.00
14242;BME280;7205;50.864;12.766;2023-09-12T07:43:18;97357.16;;;22.85;77.58
14242;BME280;7205;50.864;12.766;2023-09-12T07:45:45;97357.53;;;22.99;76.96
14242;BME280;7205;50.864;12.766;2023-09-12T07:48:12;97366.44;;;23.09;76.12
14242;BME280;7205;50.864;12.766;2023-09-12T07:50:39;97363.31;;;23.22;75.49
14242;BME280;7205;50.864;12.766;2023-09-12T07:53:07;97361.75;;;23.31;74.74
14242;BME280;7205;50.864;12.766;2023-09-12T07:55:37;97362.88;;;23.40;72.58
14242;BME280;7205;50.864;12.766;2023-09-12T07:58:11;97368.31;;;23.50;71.97
14242;BME280;7205;50.864;12.766;2023-09-12T08:00:37;97365.94;;;23.59;70.46
14242;BME280;7205;50.864;12.766;2023-09-12T08:03:04;97364.88;;;23.70;69.12
14242;BME280;7205;50.864;12.766;2023-09-12T08:05:31;97358.97;;;23.78;68.12
14242;BME280;7205;50.864;12.766;2023-09-12T08:07:58;97351.44;;;23.85;66.43
14242;BME280;7205;50.864;12.766;2023-09-12T08:10:27;97355.78;;;23.91;65.44
14242;BME280;7205;50.864;12.766;2023-09-12T08:12:54;97358.22;;;23.98;64.50
14242;BME280;7205;50.864;12.766;2023-09-12T08:15:21;97364.44;;;24.03;63.77
14242;BME280;7205;50.864;12.766;2023-09-12T08:17:48;97366.88;;;24.10;63.47
14242;BME280;7205;50.864;12.766;2023-09-12T08:20:17;97364.72;;;24.17;62.63
14242;BME280;7205;50.864;12.766;2023-09-12T08:22:44;97360.72;;;24.24;61.48
14242;BME280;7205;50.864;12.766;2023-09-12T08:25:11;97366.38;;;24.33;61.14
14242;BME280;7205;50.864;12.766;2023-09-12T08:27:41;97370.44;;;24.40;60.36
14242;BME280;7205;50.864;12.766;2023-09-12T08:30:10;97367.19;;;24.48;59.66
14242;BME280;7205;50.864;12.766;2023-09-12T08:32:38;97363.97;;;24.56;59.29
14242;BME280;7205;50.864;12.766;2023-09-12T08:35:09;97368.81;;;24.64;59.05
14242;BME280;7205;50.864;12.766;2023-09-12T08:37:37;97367.47;;;24.72;58.33
14242;BME280;7205;50.864;12.766;2023-09-12T08:40:07;97371.53;;;24.80;57.69
14242;BME280;7205;50.864;12.766;2023-09-12T08:42:39;97377.22;;;24.83;56.88
14242;BME280;7205;50.864;12.766;2023-09-12T08:45:12;97369.88;;;24.89;55.97
14242;BME280;7205;50.864;12.766;2023-09-12T08:47:41;97366.91;;;24.95;55.12
14242;BME280;7205;50.864;12.766;2023-09-12T08:50:11;97360.97;;;25.03;55.12
14242;BME280;7205;50.864;12.766;2023-09-12T08:52:39;97361.22;;;25.12;55.47
14242;BME280;7205;50.864;12.766;2023-09-12T08:55:06;97366.06;;;25.20;55.29
14242;BME280;7205;50.864;12.766;2023-09-12T08:57:36;97358.47;;;25.27;54.69
14242;BME280;7205;50.864;12.766;2023-09-12T09:00:03;97357.91;;;25.35;54.64
14242;BME280;7205;50.864;12.766;2023-09-12T09:02:33;97355.75;;;25.42;54.19
14242;BME280;7205;50.864;12.766;2023-09-12T09:05:02;97358.94;;;25.49;53.82
14242;BME280;7205;50.864;12.766;2023-09-12T09:07:32;97354.03;;;25.56;52.61
14242;BME280;7205;50.864;12.766;2023-09-12T09:10:01;97360.25;;;25.61;51.35
14242;BME280;7205;50.864;12.766;2023-09-12T09:12:29;97355.63;;;25.67;50.64
14242;BME280;7205;50.864;12.766;2023-09-12T09:14:56;97360.47;;;25.75;49.59
14242;BME280;7205;50.864;12.766;2023-09-12T09:17:23;97358.53;;;25.80;49.30
14242;BME280;7205;50.864;12.766;2023-09-12T09:19:51;97357.41;;;25.86;48.79
14242;BME280;7205;50.864;12.766;2023-09-12T09:22:19;97355.22;;;25.93;48.40
14242;BME280;7205;50.864;12.766;2023-09-12T09:24:46;97356.78;;;25.99;47.76
14242;BME280;7205;50.864;12.766;2023-09-12T09:27:32;97360.59;;;26.04;47.71
14242;BME280;7205;50.864;12.766;2023-09-12T09:29:59;97356.72;;;26.15;47.11
14242;BME280;7205;50.864;12.766;2023-09-12T09:32:26;97357.50;;;26.20;47.08
14242;BME280;7205;50.864;12.766;2023-09-12T09:34:54;97356.66;;;26.25;46.96
14242;BME280;7205;50.864;12.766;2023-09-12T09:37:21;97366.38;;;26.31;47.40
14242;BME280;7205;50.864;12.766;2023-09-12T09:39:48;97360.94;;;26.36;46.99
14242;BME280;7205;50.864;12.766;2023-09-12T09:42:17;97357.34;;;26.40;46.98
14242;BME280;7205;50.864;12.766;2023-09-12T09:44:44;97357.31;;;26.45;46.73
14242;BME280;7205;50.864;12.766;2023-09-12T09:47:11;97357.56;;;26.49;46.90
14242;BME280;7205;50.864;12.766;2023-09-12T09:49:38;97353.47;;;26.51;46.34
14242;BME280;7205;50.864;12.766;2023-09-12T09:52:06;97356.13;;;26.56;45.90
14242;BME280;7205;50.864;12.766;2023-09-12T09:54:33;97358.28;;;26.59;45.63
14242;BME280;7205;50.864;12.766;2023-09-12T09:57:00;97362.56;;;26.65;45.74
14242;BME280;7205;50.864;12.766;2023-09-12T09:59:28;97358.75;;;26.71;45.17
14242;BME280;7205;50.864;12.766;2023-09-12T10:01:56;97353.56;;;26.75;45.09
14242;BME280;7205;50.864;12.766;2023-09-12T10:04:24;97360.03;;;26.79;45.18
14242;BME280;7205;50.864;12.766;2023-09-12T10:06:55;97366.50;;;26.83;45.33
14242;BME280;7205;50.864;12.766;2023-09-12T10:09:26;97362.41;;;26.85;44.70
14242;BME280;7205;50.864;12.766;2023-09-12T10:11:55;97366.16;;;26.89;44.67
14242;BME280;7205;50.864;12.766;2023-09-12T10:14:22;97360.47;;;26.91;44.51
14242;BME280;7205;50.864;12.766;2023-09-12T10:16:50;97365.59;;;26.92;44.90
14242;BME280;7205;50.864;12.766;2023-09-12T10:19:21;97353.38;;;26.95;44.82
14242;BME280;7205;50.864;12.766;2023-09-12T10:21:50;97361.22;;;26.96;44.68
14242;BME280;7205;50.864;12.766;2023-09-12T10:24:21;97354.41;;;26.99;44.04
14242;BME280;7205;50.864;12.766;2023-09-12T10:26:50;97347.59;;;27.01;43.52
14242;BME280;7205;50.864;12.766;2023-09-12T10:29:18;97344.31;;;27.04;43.40
14242;BME280;7205;50.864;12.766;2023-09-12T10:31:46;97350.78;;;27.08;43.19
14242;BME280;7205;50.864;12.766;2023-09-12T10:34:14;97351.84;;;27.12;43.34
14242;BME280;7205;50.864;12.766;2023-09-12T10:36:43;97341.22;;;27.16;43.31
14242;BME280;7205;50.864;12.766;2023-09-12T10:39:11;97341.19;;;27.21;43.56
14242;BME280;7205;50.864;12.766;2023-09-12T10:41:39;97346.53;;;27.26;42.73
14242;BME280;7205;50.864;12.766;2023-09-12T10:44:09;97343.84;;;27.26;42.28
14242;BME280;7205;50.864;12.766;2023-09-12T10:46:37;97345.16;;;27.29;42.27
14242;BME280;7205;50.864;12.766;2023-09-12T10:49:06;97346.50;;;27.31;42.51
14242;BME280;7205;50.864;12.766;2023-09-12T10:51:37;97339.41;;;27.35;42.59
14242;BME280;7205;50.864;12.766;2023-09-12T10:54:05;97338.81;;;27.38;42.59
14242;BME280;7205;50.864;12.766;2023-09-12T10:56:33;97335.81;;;27.40;42.79
14242;BME280;7205;50.864;12.766;2023-09-12T10:59:13;97339.63;;;27.39;42.61
14242;BME280;7205;50.864;12.766;2023-09-12T11:01:41;97339.28;;;27.45;42.28
14242;BME280;7205;50.864;12.766;2023-09-12T11:04:32;97336.03;;;27.43;43.07
14242;BME280;7205;50.864;12.766;2023-09-12T11:07:00;97336.19;;;27.52;42.67
14242;BME280;7205;50.864;12.766;2023-09-12T11:09:27;97335.63;;;27.55;42.96
14242;BME280;7205;50.864;12.766;2023-09-12T11:11:56;97330.41;;;27.58;42.36
14242;BME280;7205;50.864;12.766;2023-09-12T11:14:24;97324.44;;;27.61;42.16
14242;BME280;7205;50.864;12.766;2023-09-12T11:17:21;97322.78;;;27.60;42.18
14242;BME280;7205;50.864;12.766;2023-09-12T11:19:50;97326.56;;;27.64;42.02
14242;BME280;7205;50.864;12.766;2023-09-12T11:22:23;97321.13;;;27.64;41.16
14242;BME280;7205;50.864;12.766;2023-09-12T11:24:51;97324.84;;;27.68;41.05
14242;BME280;7205;50.864;12.766;2023-09-12T11:27:18;97321.59;;;27.71;40.98
14242;BME280;7205;50.864;12.766;2023-09-12T11:29:46;97317.47;;;27.74;40.75
14242;BME280;7205;50.864;12.766;2023-09-12T11:32:26;97314.53;;;27.70;41.01
14242;BME280;7205;50.864;12.766;2023-09-12T11:34:53;97315.28;;;27.76;41.00
14242;BME280;7205;50.864;12.766;2023-09-12T11:37:24;97309.53;;;27.77;41.33
14242;BME280;7205;50.864;12.766;2023-09-12T11:39:52;97310.34;;;27.78;41.11
14242;BME280;7205;50.864;12.766;2023-09-12T11:42:20;97308.13;;;27.80;40.96
14242;BME280;7205;50.864;12.766;2023-09-12T11:44:50;97299.72;;;27.81;40.98
14242;BME280;7205;50.864;12.766;2023-09-12T11:47:50;97290.53;;;27.77;40.77
14242;BME280;7205;50.864;12.766;2023-09-12T11:50:30;97305.16;;;27.81;40.73
14242;BME280;7205;50.864;12.766;2023-09-12T11:53:01;97300.72;;;27.85;40.92
14242;BME280;7205;50.864;12.766;2023-09-12T11:55:31;97297.72;;;27.87;40.54
14242;BME280;7205;50.864;12.766;2023-09-12T11:57:58;97291.22;;;27.88;40.87
14242;BME280;7205;50.864;12.766;2023-09-12T12:00:27;97294.44;;;27.90;40.24
14242;BME280;7205;50.864;12.766;2023-09-12T12:03:04;97301.25;;;27.87;40.21
14242;BME280;7205;50.864;12.766;2023-09-12T12:05:34;97290.91;;;27.89;40.30
14242;BME280;7205;50.864;12.766;2023-09-12T12:08:07;97295.25;;;27.90;40.11
14242;BME280;7205;50.864;12.766;2023-09-12T12:10:54;97292.81;;;27.89;40.11
14242;BME280;7205;50.864;12.766;2023-09-12T12:13:22;97292.56;;;27.90;40.54
14242;BME280;7205;50.864;12.766;2023-09-12T12:15:51;97297.69;;;27.92;40.15
14242;BME280;7205;50.864;12.766;2023-09-12T12:18:17;97298.50;;;27.92;40.14
14242;BME280;7205;50.864;12.766;2023-09-12T12:20:44;97295.47;;;27.94;40.14
14242;BME280;7205;50.864;12.766;2023-09-12T12:23:11;97297.59;;;27.97;39.99
14242;BME280;7205;50.864;12.766;2023-09-12T12:25:38;97296.22;;;27.99;39.64
14242;BME280;7205;50.864;12.766;2023-09-12T12:28:05;97303.78;;;28.02;39.20
14242;BME280;7205;50.864;12.766;2023-09-12T12:30:33;97305.31;;;28.08;39.21
14242;BME280;7205;50.864;12.766;2023-09-12T12:33:07;97300.38;;;28.10;39.36
14242;BME280;7205;50.864;12.766;2023-09-12T12:35:34;97290.25;;;28.16;39.16
14242;BME280;7205;50.864;12.766;2023-09-12T12:38:02;97295.38;;;28.17;38.85
14242;BME280;7205;50.864;12.766;2023-09-12T12:40:29;97295.09;;;28.19;38.74
14242;BME280;7205;50.864;12.766;2023-09-12T12:42:56;97287.16;;;28.22;38.95
14242;BME280;7205;50.864;12.766;2023-09-12T12:45:23;97282.75;;;28.26;38.71
14242;BME280;7205;50.864;12.766;2023-09-12T12:47:52;97281.03;;;28.30;38.62
14242;BME280;7205;50.864;12.766;2023-09-12T12:50:20;97281.25;;;28.34;38.90
14242;BME280;7205;50.864;12.766;2023-09-12T12:52:48;97280.09;;;28.40;38.77
14242;BME280;7205;50.864;12.766;2023-09-12T12:55:16;97282.41;;;28.47;39.24
14242;BME280;7205;50.864;12.766;2023-09-12T12:57:45;97280.94;;;28.54;38.71
14242;BME280;7205;50.864;12.766;2023-09-12T13:00:13;97281.38;;;28.61;38.62
14242;BME280;7205;50.864;12.766;2023-09-12T13:02:41;97281.78;;;28.68;38.52
14242;BME280;7205;50.864;12.766;2023-09-12T13:05:21;97284.50;;;28.68;38.53
14242;BME280;7205;50.864;12.766;2023-09-12T13:07:49;97282.13;;;28.80;38.43